sensor_id;sensor_type;location;lat;lon;timestamp;pressure;altitude;pressure_sealevel;temperature
21336;BMP180;69435;52.670;13.544;2023-05-07T00:02:16;101562.00;;;13.90
21336;BMP180;69435;52.670;13.544;2023-05-07T00:05:02;101564.00;;;13.90
21336;BMP180;69435;52.670;13.544;2023-05-07T00:07:49;101554.00;;;13.90
21336;BMP180;69435;52.670;13.544;2023-05-07T00:10:35;101544.00;;;13.90
21336;BMP180;69435;52.670;13.544;2023-05-07T00:13:21;101538.00;;;13.90
21336;BMP180;69435;52.670;13.544;2023-05-07T00:16:07;101558.00;;;13.90
21336;BMP180;69435;52.670;13.544;2023-05-07T00:18:53;101552.00;;;13.80
21336;BMP180;69435;52.670;13.544;2023-05-07T00:21:39;101550.00;;;13.80
21336;BMP180;69435;52.670;13.544;2023-05-07T00:24:25;101550.00;;;13.80
21336;BMP180;69435;52.670;13.544;2023-05-07T00:27:12;101544.00;;;13.80
21336;BMP180;69435;52.670;13.544;2023-05-07T00:29:57;101519.00;;;13.80
21336;BMP180;69435;52.670;13.544;2023-05-07T00:32:43;101524.00;;;13.90
21336;BMP180;69435;52.670;13.544;2023-05-07T00:35:31;101521.00;;;13.90
21336;BMP180;69435;52.670;13.544;2023-05-07T00:38:17;101533.00;;;13.90
21336;BMP180;69435;52.670;13.544;2023-05-07T00:41:02;101542.00;;;13.80
21336;BMP180;69435;52.670;13.544;2023-05-07T00:43:48;101556.00;;;13.80
21336;BMP180;69435;52.670;13.544;2023-05-07T00:46:37;101548.00;;;13.80
21336;BMP180;69435;52.670;13.544;2023-05-07T00:49:41;101551.00;;;13.90
21336;BMP180;69435;52.670;13.544;2023-05-07T00:52:29;101547.00;;;13.80
21336;BMP180;69435;52.670;13.544;2023-05-07T00:55:15;101541.00;;;13.80
21336;BMP180;69435;52.670;13.544;2023-05-07T00:58:02;101540.00;;;13.80
21336;BMP180;69435;52.670;13.544;2023-05-07T01:00:48;101523.00;;;13.80
21336;BMP180;69435;52.670;13.544;2023-05-07T01:03:34;101517.00;;;13.80
21336;BMP180;69435;52.670;13.544;2023-05-07T01:06:24;101546.00;;;13.80
21336;BMP180;69435;52.670;13.544;2023-05-07T01:09:12;101518.00;;;13.80
21336;BMP180;69435;52.670;13.544;2023-05-07T01:11:59;101537.00;;;13.80
21336;BMP180;69435;52.670;13.544;2023-05-07T01:14:45;101555.00;;;13.80
21336;BMP180;69435;52.670;13.544;2023-05-07T01:17:36;101548.00;;;13.80
21336;BMP180;69435;52.670;13.544;2023-05-07T01:20:23;101545.00;;;13.80
21336;BMP180;69435;52.670;13.544;2023-05-07T01:23:11;101528.00;;;13.80
21336;BMP180;69435;52.670;13.544;2023-05-07T01:25:57;101535.00;;;13.70
21336;BMP180;69435;52.670;13.544;2023-05-07T01:28:43;101527.00;;;13.70
21336;BMP180;69435;52.670;13.544;2023-05-07T01:31:29;101547.00;;;13.70
21336;BMP180;69435;52.670;13.544;2023-05-07T01:34:18;101524.00;;;13.70
21336;BMP180;69435;52.670;13.544;2023-05-07T01:37:06;101525.00;;;13.70
21336;BMP180;69435;52.670;13.544;2023-05-07T01:39:53;101558.00;;;13.60
21336;BMP180;69435;52.670;13.544;2023-05-07T01:42:42;101568.00;;;13.60
21336;BMP180;69435;52.670;13.544;2023-05-07T01:45:30;101569.00;;;13.50
21336;BMP180;69435;52.670;13.544;2023-05-07T01:48:18;101526.00;;;13.60
21336;BMP180;69435;52.670;13.544;2023-05-07T01:51:05;101562.00;;;13.60
21336;BMP180;69435;52.670;13.544;2023-05-07T01:53:52;101568.00;;;13.60
21336;BMP180;69435;52.670;13.544;2023-05-07T01:56:39;101507.00;;;13.60
21336;BMP180;69435;52.670;13.544;2023-05-07T01:59:25;101556.00;;;13.60
21336;BMP180;69435;52.670;13.544;2023-05-07T02:02:11;101573.00;;;13.60
21336;BMP180;69435;52.670;13.544;2023-05-07T02:04:57;101594.00;;;13.60
21336;BMP180;69435;52.670;13.544;2023-05-07T02:07:43;101556.00;;;13.60
21336;BMP180;69435;52.670;13.544;2023-05-07T02:10:29;101526.00;;;13.60
21336;BMP180;69435;52.670;13.544;2023-05-07T02:13:15;101593.00;;;13.50
21336;BMP180;69435;52.670;13.544;2023-05-07T02:16:02;101580.00;;;13.50
21336;BMP180;69435;52.670;13.544;2023-05-07T02:18:48;101581.00;;;13.50
21336;BMP180;69435;52.670;13.544;2023-05-07T02:21:34;101579.00;;;13.40
21336;BMP180;69435;52.670;13.544;2023-05-07T02:24:21;101578.00;;;13.40
21336;BMP180;69435;52.670;13.544;2023-05-07T02:27:07;101587.00;;;13.40
21336;BMP180;69435;52.670;13.544;2023-05-07T02:29:53;101555.00;;;13.40
21336;BMP180;69435;52.670;13.544;2023-05-07T02:32:39;101572.00;;;13.40
21336;BMP180;69435;52.670;13.544;2023-05-07T02:35:26;101583.00;;;13.40
21336;BMP180;69435;52.670;13.544;2023-05-07T02:38:12;101588.00;;;13.50
21336;BMP180;69435;52.670;13.544;2023-05-07T02:40:58;101591.00;;;13.40
21336;BMP180;69435;52.670;13.544;2023-05-07T02:43:44;101593.00;;;13.40
21336;BMP180;69435;52.670;13.544;2023-05-07T02:46:30;101560.00;;;13.40
21336;BMP180;69435;52.670;13.544;2023-05-07T02:49:17;101605.00;;;13.40
21336;BMP180;69435;52.670;13.544;2023-05-07T02:52:03;101588.00;;;13.40
21336;BMP180;69435;52.670;13.544;2023-05-07T02:54:49;101583.00;;;13.40
21336;BMP180;69435;52.670;13.544;2023-05-07T02:57:35;101590.00;;;13.40
21336;BMP180;69435;52.670;13.544;2023-05-07T03:00:21;101594.00;;;13.40
21336;BMP180;69435;52.670;13.544;2023-05-07T03:03:07;101613.00;;;13.40
21336;BMP180;69435;52.670;13.544;2023-05-07T03:05:53;101609.00;;;13.50
21336;BMP180;69435;52.670;13.544;2023-05-07T03:08:39;101570.00;;;13.40
21336;BMP180;69435;52.670;13.544;2023-05-07T03:11:26;101596.00;;;13.40
21336;BMP180;69435;52.670;13.544;2023-05-07T03:14:12;101605.00;;;13.50
21336;BMP180;69435;52.670;13.544;2023-05-07T03:16:58;101614.00;;;13.50
21336;BMP180;69435;52.670;13.544;2023-05-07T03:19:44;101609.00;;;13.50
21336;BMP180;69435;52.670;13.544;2023-05-07T03:22:31;101618.00;;;13.50
21336;BMP180;69435;52.670;13.544;2023-05-07T03:25:17;101605.00;;;13.40
21336;BMP180;69435;52.670;13.544;2023-05-07T03:28:03;101606.00;;;13.40
21336;BMP180;69435;52.670;13.544;2023-05-07T03:30:49;101617.00;;;13.40
21336;BMP180;69435;52.670;13.544;2023-05-07T03:33:50;101589.00;;;13.50
21336;BMP180;69435;52.670;13.544;2023-05-07T03:36:36;101622.00;;;13.30
21336;BMP180;69435;52.670;13.544;2023-05-07T03:39:22;101615.00;;;13.40
21336;BMP180;69435;52.670;13.544;2023-05-07T03:42:08;101614.00;;;13.40
21336;BMP180;69435;52.670;13.544;2023-05-07T03:44:54;101622.00;;;13.50
21336;BMP180;69435;52.670;13.544;2023-05-07T03:47:40;101618.00;;;13.50
21336;BMP180;69435;52.670;13.544;2023-05-07T03:50:26;101598.00;;;13.50
21336;BMP180;69435;52.670;13.544;2023-05-07T03:53:12;101627.00;;;13.50
21336;BMP180;69435;52.670;13.544;2023-05-07T03:55:58;101617.00;;;13.50
21336;BMP180;69435;52.670;13.544;2023-05-07T03:58:44;101602.00;;;13.50
21336;BMP180;69435;52.670;13.544;2023-05-07T04:01:30;101603.00;;;13.50
21336;BMP180;69435;52.670;13.544;2023-05-07T04:04:16;101619.00;;;13.60
21336;BMP180;69435;52.670;13.544;2023-05-07T04:07:02;101646.00;;;13.50
21336;BMP180;69435;52.670;13.544;2023-05-07T04:09:50;101609.00;;;13.50
21336;BMP180;69435;52.670;13.544;2023-05-07T04:12:36;101608.00;;;13.50
21336;BMP180;69435;52.670;13.544;2023-05-07T04:15:22;101643.00;;;13.50
21336;BMP180;69435;52.670;13.544;2023-05-07T04:18:08;101615.00;;;13.40
21336;BMP180;69435;52.670;13.544;2023-05-07T04:20:54;101593.00;;;13.40
21336;BMP180;69435;52.670;13.544;2023-05-07T04:23:40;101616.00;;;13.50
21336;BMP180;69435;52.670;13.544;2023-05-07T04:26:26;101578.00;;;13.50
21336;BMP180;69435;52.670;13.544;2023-05-07T04:29:12;101655.00;;;13.50
21336;BMP180;69435;52.670;13.544;2023-05-07T04:31:58;101656.00;;;13.50
21336;BMP180;69435;52.670;13.544;2023-05-07T04:34:44;101643.00;;;13.50
21336;BMP180;69435;52.670;13.544;2023-05-07T04:37:32;101616.00;;;13.50
21336;BMP180;69435;52.670;13.544;2023-05-07T04:40:18;101653.00;;;13.40
21336;BMP180;69435;52.670;13.544;2023-05-07T04:43:04;101648.00;;;13.40
21336;BMP180;69435;52.670;13.544;2023-05-07T04:45:51;101661.00;;;13.40
21336;BMP180;69435;52.670;13.544;2023-05-07T04:48:37;101631.00;;;13.50
21336;BMP180;69435;52.670;13.544;2023-05-07T04:51:23;101656.00;;;13.60
21336;BMP180;69435;52.670;13.544;2023-05-07T04:54:10;101630.00;;;13.60
21336;BMP180;69435;52.670;13.544;2023-05-07T04:56:56;101642.00;;;13.60
21336;BMP180;69435;52.670;13.544;2023-05-07T04:59:43;101675.00;;;13.60
21336;BMP180;69435;52.670;13.544;2023-05-07T05:02:29;101664.00;;;13.70
21336;BMP180;69435;52.670;13.544;2023-05-07T05:05:15;101663.00;;;13.70
21336;BMP180;69435;52.670;13.544;2023-05-07T05:08:01;101633.00;;;13.80
21336;BMP180;69435;52.670;13.544;2023-05-07T05:10:47;101668.00;;;13.80
21336;BMP180;69435;52.670;13.544;2023-05-07T05:13:36;101677.00;;;13.90
21336;BMP180;69435;52.670;13.544;2023-05-07T05:16:22;101641.00;;;14.00
21336;BMP180;69435;52.670;13.544;2023-05-07T05:19:08;101654.00;;;14.10
21336;BMP180;69435;52.670;13.544;2023-05-07T05:21:54;101659.00;;;14.20
21336;BMP180;69435;52.670;13.544;2023-05-07T05:24:40;101635.00;;;14.30
21336;BMP180;69435;52.670;13.544;2023-05-07T05:27:26;101673.00;;;14.40
21336;BMP180;69435;52.670;13.544;2023-05-07T05:30:13;101627.00;;;14.60
21336;BMP180;69435;52.670;13.544;2023-05-07T05:32:59;101690.00;;;14.70
21336;BMP180;69435;52.670;13.544;2023-05-07T05:35:45;101669.00;;;14.70
21336;BMP180;69435;52.670;13.544;2023-05-07T05:38:30;101678.00;;;14.70
21336;BMP180;69435;52.670;13.544;2023-05-07T05:41:16;101632.00;;;14.70
21336;BMP180;69435;52.670;13.544;2023-05-07T05:44:03;101634.00;;;14.80
21336;BMP180;69435;52.670;13.544;2023-05-07T05:46:48;101663.00;;;14.80
21336;BMP180;69435;52.670;13.544;2023-05-07T05:49:37;101666.00;;;14.80
21336;BMP180;69435;52.670;13.544;2023-05-07T05:52:23;101619.00;;;14.80
21336;BMP180;69435;52.670;13.544;2023-05-07T05:55:09;101679.00;;;14.70
21336;BMP180;69435;52.670;13.544;2023-05-07T05:57:56;101666.00;;;14.80
21336;BMP180;69435;52.670;13.544;2023-05-07T06:00:42;101646.00;;;14.80
21336;BMP180;69435;52.670;13.544;2023-05-07T06:03:28;101629.00;;;14.80
21336;BMP180;69435;52.670;13.544;2023-05-07T06:06:14;101655.00;;;14.80
21336;BMP180;69435;52.670;13.544;2023-05-07T06:09:00;101688.00;;;14.90
21336;BMP180;69435;52.670;13.544;2023-05-07T06:11:46;101663.00;;;14.90
21336;BMP180;69435;52.670;13.544;2023-05-07T06:14:32;101661.00;;;15.00
21336;BMP180;69435;52.670;13.544;2023-05-07T06:17:18;101693.00;;;15.00
21336;BMP180;69435;52.670;13.544;2023-05-07T06:20:05;101690.00;;;15.00
21336;BMP180;69435;52.670;13.544;2023-05-07T06:22:51;101684.00;;;15.10
21336;BMP180;69435;52.670;13.544;2023-05-07T06:25:37;101674.00;;;15.30
21336;BMP180;69435;52.670;13.544;2023-05-07T06:28:23;101682.00;;;15.30
21336;BMP180;69435;52.670;13.544;2023-05-07T06:31:18;101700.00;;;15.40
21336;BMP180;69435;52.670;13.544;2023-05-07T06:34:06;101676.00;;;15.40
21336;BMP180;69435;52.670;13.544;2023-05-07T06:36:51;101674.00;;;15.50
21336;BMP180;69435;52.670;13.544;2023-05-07T06:39:37;101714.00;;;15.50
21336;BMP180;69435;52.670;13.544;2023-05-07T06:42:23;101705.00;;;15.50
21336;BMP180;69435;52.670;13.544;2023-05-07T06:45:10;101716.00;;;15.60
21336;BMP180;69435;52.670;13.544;2023-05-07T06:47:56;101683.00;;;15.60
21336;BMP180;69435;52.670;13.544;2023-05-07T06:50:42;101693.00;;;15.70
21336;BMP180;69435;52.670;13.544;2023-05-07T06:53:28;101725.00;;;15.70
21336;BMP180;69435;52.670;13.544;2023-05-07T06:56:16;101660.00;;;15.80
21336;BMP180;69435;52.670;13.544;2023-05-07T06:59:02;101744.00;;;15.90
21336;BMP180;69435;52.670;13.544;2023-05-07T07:01:48;101708.00;;;15.90
21336;BMP180;69435;52.670;13.544;2023-05-07T07:04:34;101735.00;;;16.00
21336;BMP180;69435;52.670;13.544;2023-05-07T07:07:20;101737.00;;;16.00
21336;BMP180;69435;52.670;13.544;2023-05-07T07:10:08;101716.00;;;16.00
21336;BMP180;69435;52.670;13.544;2023-05-07T07:12:54;101702.00;;;16.10
21336;BMP180;69435;52.670;13.544;2023-05-07T07:15:40;101741.00;;;16.20
21336;BMP180;69435;52.670;13.544;2023-05-07T07:18:26;101732.00;;;16.40
21336;BMP180;69435;52.670;13.544;2023-05-07T07:21:12;101731.00;;;16.80
21336;BMP180;69435;52.670;13.544;2023-05-07T07:23:58;101712.00;;;17.50
21336;BMP180;69435;52.670;13.544;2023-05-07T07:26:44;101721.00;;;18.40
21336;BMP180;69435;52.670;13.544;2023-05-07T07:29:30;101735.00;;;19.40
21336;BMP180;69435;52.670;13.544;2023-05-07T07:32:16;101744.00;;;20.30
21336;BMP180;69435;52.670;13.544;2023-05-07T07:35:02;101714.00;;;21.10
21336;BMP180;69435;52.670;13.544;2023-05-07T07:37:48;101733.00;;;21.80
21336;BMP180;69435;52.670;13.544;2023-05-07T07:40:35;101758.00;;;22.40
21336;BMP180;69435;52.670;13.544;2023-05-07T07:43:21;101720.00;;;22.80
21336;BMP180;69435;52.670;13.544;2023-05-07T07:46:08;101735.00;;;23.20
21336;BMP180;69435;52.670;13.544;2023-05-07T07:48:53;101725.00;;;23.50
21336;BMP180;69435;52.670;13.544;2023-05-07T07:51:39;101727.00;;;23.50
21336;BMP180;69435;52.670;13.544;2023-05-07T07:54:26;101727.00;;;23.60
21336;BMP180;69435;52.670;13.544;2023-05-07T07:57:12;101717.00;;;23.60
21336;BMP180;69435;52.670;13.544;2023-05-07T07:59:58;101736.00;;;23.70
21336;BMP180;69435;52.670;13.544;2023-05-07T08:02:45;101721.00;;;23.70
21336;BMP180;69435;52.670;13.544;2023-05-07T08:05:52;101740.00;;;23.90
21336;BMP180;69435;52.670;13.544;2023-05-07T08:08:38;101679.00;;;24.10
21336;BMP180;69435;52.670;13.544;2023-05-07T08:11:24;101734.00;;;24.20
21336;BMP180;69435;52.670;13.544;2023-05-07T08:14:11;101716.00;;;24.40
21336;BMP180;69435;52.670;13.544;2023-05-07T08:16:57;101727.00;;;24.70
21336;BMP180;69435;52.670;13.544;2023-05-07T08:19:43;101735.00;;;25.00
21336;BMP180;69435;52.670;13.544;2023-05-07T08:22:30;101716.00;;;25.30
21336;BMP180;69435;52.670;13.544;2023-05-07T08:25:16;101711.00;;;25.30
21336;BMP180;69435;52.670;13.544;2023-05-07T08:28:02;101745.00;;;25.50
21336;BMP180;69435;52.670;13.544;2023-05-07T08:30:49;101735.00;;;25.70
21336;BMP180;69435;52.670;13.544;2023-05-07T08:33:35;101715.00;;;25.80
21336;BMP180;69435;52.670;13.544;2023-05-07T08:36:21;101724.00;;;25.70
21336;BMP180;69435;52.670;13.544;2023-05-07T08:39:07;101730.00;;;25.60
21336;BMP180;69435;52.670;13.544;2023-05-07T08:41:55;101748.00;;;25.50
21336;BMP180;69435;52.670;13.544;2023-05-07T08:44:45;101755.00;;;25.50
21336;BMP180;69435;52.670;13.544;2023-05-07T08:47:43;101745.00;;;25.60
21336;BMP180;69435;52.670;13.544;2023-05-07T08:50:33;101754.00;;;25.80
21336;BMP180;69435;52.670;13.544;2023-05-07T08:53:21;101757.00;;;26.00
21336;BMP180;69435;52.670;13.544;2023-05-07T08:56:09;101759.00;;;26.10
21336;BMP180;69435;52.670;13.544;2023-05-07T08:58:55;101747.00;;;26.10
21336;BMP180;69435;52.670;13.544;2023-05-07T09:01:46;101736.00;;;26.20
21336;BMP180;69435;52.670;13.544;2023-05-07T09:04:32;101717.00;;;26.10
21336;BMP180;69435;52.670;13.544;2023-05-07T09:07:20;101751.00;;;26.10
21336;BMP180;69435;52.670;13.544;2023-05-07T09:10:07;101769.00;;;25.80
21336;BMP180;69435;52.670;13.544;2023-05-07T09:12:53;101753.00;;;25.20
21336;BMP180;69435;52.670;13.544;2023-05-07T09:15:39;101770.00;;;24.60
21336;BMP180;69435;52.670;13.544;2023-05-07T09:18:25;101730.00;;;24.30
21336;BMP180;69435;52.670;13.544;2023-05-07T09:21:16;101738.00;;;24.20
21336;BMP180;69435;52.670;13.544;2023-05-07T09:24:02;101777.00;;;24.20
21336;BMP180;69435;52.670;13.544;2023-05-07T09:26:48;101769.00;;;24.00
21336;BMP180;69435;52.670;13.544;2023-05-07T09:29:34;101734.00;;;23.80
21336;BMP180;69435;52.670;13.544;2023-05-07T09:32:21;101762.00;;;23.80
21336;BMP180;69435;52.670;13.544;2023-05-07T09:35:15;101781.00;;;23.80
21336;BMP180;69435;52.670;13.544;2023-05-07T09:38:02;101772.00;;;23.60
21336;BMP180;69435;52.670;13.544;2023-05-07T09:41:09;101770.00;;;23.30
21336;BMP180;69435;52.670;13.544;2023-05-07T09:43:56;101754.00;;;22.90
21336;BMP180;69435;52.670;13.544;2023-05-07T09:46:43;101770.00;;;22.80
21336;BMP180;69435;52.670;13.544;2023-05-07T09:49:38;101776.00;;;22.80
21336;BMP180;69435;52.670;13.544;2023-05-07T09:52:25;101776.00;;;22.60
21336;BMP180;69435;52.670;13.544;2023-05-07T09:55:16;101746.00;;;22.50
21336;BMP180;69435;52.670;13.544;2023-05-07T09:58:04;101749.00;;;22.30
21336;BMP180;69435;52.670;13.544;2023-05-07T10:00:52;101773.00;;;22.10
21336;BMP180;69435;52.670;13.544;2023-05-07T10:03:41;101780.00;;;21.90
21336;BMP180;69435;52.670;13.544;2023-05-07T10:06:30;101759.00;;;21.50
21336;BMP180;69435;52.670;13.544;2023-05-07T10:09:16;101744.00;;;21.30
21336;BMP180;69435;52.670;13.544;2023-05-07T10:12:03;101748.00;;;21.20
21336;BMP180;69435;52.670;13.544;2023-05-07T10:14:51;101765.00;;;21.10
21336;BMP180;69435;52.670;13.544;2023-05-07T10:17:39;101785.00;;;21.10
21336;BMP180;69435;52.670;13.544;2023-05-07T10:20:27;101741.00;;;21.10
21336;BMP180;69435;52.670;13.544;2023-05-07T10:23:19;101779.00;;;21.10
21336;BMP180;69435;52.670;13.544;2023-05-07T10:26:12;101773.00;;;21.10
21336;BMP180;69435;52.670;13.544;2023-05-07T10:29:33;101776.00;;;21.00
21336;BMP180;69435;52.670;13.544;2023-05-07T10:32:40;101795.00;;;21.10
21336;BMP180;69435;52.670;13.544;2023-05-07T10:35:40;101789.00;;;21.10
21336;BMP180;69435;52.670;13.544;2023-05-07T10:38:28;101781.00;;;21.50
21336;BMP180;69435;52.670;13.544;2023-05-07T10:41:14;101773.00;;;21.80
21336;BMP180;69435;52.670;13.544;2023-05-07T10:44:02;101751.00;;;22.20
21336;BMP180;69435;52.670;13.544;2023-05-07T10:47:12;101776.00;;;22.50
21336;BMP180;69435;52.670;13.544;2023-05-07T10:53:23;101761.00;;;22.50
21336;BMP180;69435;52.670;13.544;2023-05-07T10:59:31;101770.00;;;22.40
21336;BMP180;69435;52.670;13.544;2023-05-07T11:02:18;101782.00;;;22.30
21336;BMP180;69435;52.670;13.544;2023-05-07T11:05:23;101750.00;;;22.40
21336;BMP180;69435;52.670;13.544;2023-05-07T11:08:09;101788.00;;;22.50
21336;BMP180;69435;52.670;13.544;2023-05-07T11:10:57;101778.00;;;22.90
21336;BMP180;69435;52.670;13.544;2023-05-07T11:13:48;101783.00;;;23.60
21336;BMP180;69435;52.670;13.544;2023-05-07T11:16:36;101780.00;;;24.00
21336;BMP180;69435;52.670;13.544;2023-05-07T11:19:49;101767.00;;;24.60
21336;BMP180;69435;52.670;13.544;2023-05-07T11:22:38;101779.00;;;24.60
21336;BMP180;69435;52.670;13.544;2023-05-07T11:25:26;101757.00;;;24.30
21336;BMP180;69435;52.670;13.544;2023-05-07T11:28:12;101755.00;;;24.00
21336;BMP180;69435;52.670;13.544;2023-05-07T11:30:59;101772.00;;;23.70
21336;BMP180;69435;52.670;13.544;2023-05-07T11:33:46;101776.00;;;23.40
21336;BMP180;69435;52.670;13.544;2023-05-07T11:36:33;101772.00;;;23.10
21336;BMP180;69435;52.670;13.544;2023-05-07T11:39:32;101780.00;;;23.10
21336;BMP180;69435;52.670;13.544;2023-05-07T11:42:37;101771.00;;;23.00
21336;BMP180;69435;52.670;13.544;2023-05-07T11:45:24;101736.00;;;22.80
21336;BMP180;69435;52.670;13.544;2023-05-07T11:48:15;101762.00;;;22.70
21336;BMP180;69435;52.670;13.544;2023-05-07T11:51:06;101780.00;;;22.60
21336;BMP180;69435;52.670;13.544;2023-05-07T11:53:55;101769.00;;;22.50
21336;BMP180;69435;52.670;13.544;2023-05-07T11:56:40;101739.00;;;22.60
21336;BMP180;69435;52.670;13.544;2023-05-07T11:59:26;101766.00;;;22.70
21336;BMP180;69435;52.670;13.544;2023-05-07T12:02:15;101770.00;;;22.80
21336;BMP180;69435;52.670;13.544;2023-05-07T12:05:01;101758.00;;;22.80
21336;BMP180;69435;52.670;13.544;2023-05-07T12:07:48;101762.00;;;22.90
21336;BMP180;69435;52.670;13.544;2023-05-07T12:10:34;101757.00;;;23.10
21336;BMP180;69435;52.670;13.544;2023-05-07T12:13:24;101756.00;;;23.40
21336;BMP180;69435;52.670;13.544;2023-05-07T12:16:11;101752.00;;;23.70
21336;BMP180;69435;52.670;13.544;2023-05-07T12:18:57;101744.00;;;23.90
21336;BMP180;69435;52.670;13.544;2023-05-07T12:21:44;101724.00;;;24.10
21336;BMP180;69435;52.670;13.544;2023-05-07T12:24:48;101723.00;;;24.30
21336;BMP180;69435;52.670;13.544;2023-05-07T12:27:37;101744.00;;;24.00
21336;BMP180;69435;52.670;13.544;2023-05-07T12:30:24;101712.00;;;23.80
21336;BMP180;69435;52.670;13.544;2023-05-07T12:33:12;101791.00;;;23.60
21336;BMP180;69435;52.670;13.544;2023-05-07T12:36:03;101773.00;;;23.30
21336;BMP180;69435;52.670;13.544;2023-05-07T12:38:49;101741.00;;;23.10
21336;BMP180;69435;52.670;13.544;2023-05-07T12:41:58;101771.00;;;22.90
21336;BMP180;69435;52.670;13.544;2023-05-07T12:44:46;101736.00;;;22.80
21336;BMP180;69435;52.670;13.544;2023-05-07T12:47:32;101725.00;;;22.80
21336;BMP180;69435;52.670;13.544;2023-05-07T12:50:19;101703.00;;;22.90
21336;BMP180;69435;52.670;13.544;2023-05-07T12:53:08;101772.00;;;23.00
21336;BMP180;69435;52.670;13.544;2023-05-07T12:55:59;101717.00;;;23.20
21336;BMP180;69435;52.670;13.544;2023-05-07T12:58:48;101722.00;;;23.30
21336;BMP180;69435;52.670;13.544;2023-05-07T13:01:34;101728.00;;;23.10
21336;BMP180;69435;52.670;13.544;2023-05-07T13:04:24;101781.00;;;22.90
21336;BMP180;69435;52.670;13.544;2023-05-07T13:07:10;101723.00;;;22.70
21336;BMP180;69435;52.670;13.544;2023-05-07T13:09:56;101727.00;;;22.60
21336;BMP180;69435;52.670;13.544;2023-05-07T13:12:42;101732.00;;;22.50
21336;BMP180;69435;52.670;13.544;2023-05-07T13:15:28;101739.00;;;22.40
21336;BMP180;69435;52.670;13.544;2023-05-07T13:18:14;101727.00;;;22.40
21336;BMP180;69435;52.670;13.544;2023-05-07T13:21:01;101766.00;;;22.60
21336;BMP180;69435;52.670;13.544;2023-05-07T13:23:47;101736.00;;;22.70
21336;BMP180;69435;52.670;13.544;2023-05-07T13:26:33;101734.00;;;22.80
21336;BMP180;69435;52.670;13.544;2023-05-07T13:29:19;101723.00;;;22.80
21336;BMP180;69435;52.670;13.544;2023-05-07T13:32:10;101739.00;;;22.90
21336;BMP180;69435;52.670;13.544;2023-05-07T13:34:55;101696.00;;;22.90
21336;BMP180;69435;52.670;13.544;2023-05-07T13:37:41;101732.00;;;22.90
21336;BMP180;69435;52.670;13.544;2023-05-07T13:40:29;101719.00;;;23.00
21336;BMP180;69435;52.670;13.544;2023-05-07T13:43:16;101734.00;;;23.10
21336;BMP180;69435;52.670;13.544;2023-05-07T13:46:03;101755.00;;;23.20
21336;BMP180;69435;52.670;13.544;2023-05-07T13:48:49;101739.00;;;23.20
21336;BMP180;69435;52.670;13.544;2023-05-07T13:51:38;101740.00;;;23.10
21336;BMP180;69435;52.670;13.544;2023-05-07T13:54:24;101751.00;;;23.00
21336;BMP180;69435;52.670;13.544;2023-05-07T13:57:10;101741.00;;;22.90
21336;BMP180;69435;52.670;13.544;2023-05-07T13:59:56;101765.00;;;23.20
21336;BMP180;69435;52.670;13.544;2023-05-07T14:02:41;101757.00;;;23.30
21336;BMP180;69435;52.670;13.544;2023-05-07T14:05:28;101747.00;;;23.30
21336;BMP180;69435;52.670;13.544;2023-05-07T14:08:14;101762.00;;;23.30
21336;BMP180;69435;52.670;13.544;2023-05-07T14:11:00;101753.00;;;23.40
21336;BMP180;69435;52.670;13.544;2023-05-07T14:13:46;101748.00;;;23.30
21336;BMP180;69435;52.670;13.544;2023-05-07T14:16:34;101769.00;;;23.00
21336;BMP180;69435;52.670;13.544;2023-05-07T14:19:20;101760.00;;;22.80
21336;BMP180;69435;52.670;13.544;2023-05-07T14:22:08;101760.00;;;22.50
21336;BMP180;69435;52.670;13.544;2023-05-07T14:24:54;101755.00;;;22.30
21336;BMP180;69435;52.670;13.544;2023-05-07T14:27:40;101755.00;;;22.10
21336;BMP180;69435;52.670;13.544;2023-05-07T14:30:26;101760.00;;;22.00
21336;BMP180;69435;52.670;13.544;2023-05-07T14:33:12;101760.00;;;21.80
21336;BMP180;69435;52.670;13.544;2023-05-07T14:35:58;101772.00;;;21.70
21336;BMP180;69435;52.670;13.544;2023-05-07T14:38:44;101758.00;;;21.60
21336;BMP180;69435;52.670;13.544;2023-05-07T14:41:30;101761.00;;;21.50
21336;BMP180;69435;52.670;13.544;2023-05-07T14:44:17;101741.00;;;21.40
21336;BMP180;69435;52.670;13.544;2023-05-07T14:47:03;101757.00;;;21.30
21336;BMP180;69435;52.670;13.544;2023-05-07T14:49:50;101754.00;;;21.10
21336;BMP180;69435;52.670;13.544;2023-05-07T14:52:37;101748.00;;;21.10
21336;BMP180;69435;52.670;13.544;2023-05-07T14:55:23;101770.00;;;21.10
21336;BMP180;69435;52.670;13.544;2023-05-07T14:58:11;101767.00;;;21.10
21336;BMP180;69435;52.670;13.544;2023-05-07T15:00:57;101764.00;;;21.00
21336;BMP180;69435;52.670;13.544;2023-05-07T15:03:44;101748.00;;;20.90
21336;BMP180;69435;52.670;13.544;2023-05-07T15:06:31;101769.00;;;20.90
21336;BMP180;69435;52.670;13.544;2023-05-07T15:09:17;101772.00;;;20.80
21336;BMP180;69435;52.670;13.544;2023-05-07T15:12:03;101738.00;;;20.60
21336;BMP180;69435;52.670;13.544;2023-05-07T15:14:49;101763.00;;;20.50
21336;BMP180;69435;52.670;13.544;2023-05-07T15:17:35;101769.00;;;20.40
21336;BMP180;69435;52.670;13.544;2023-05-07T15:20:21;101772.00;;;20.40
21336;BMP180;69435;52.670;13.544;2023-05-07T15:23:08;101777.00;;;20.50
21336;BMP180;69435;52.670;13.544;2023-05-07T15:26:00;101767.00;;;20.70
21336;BMP180;69435;52.670;13.544;2023-05-07T15:28:47;101767.00;;;20.80
21336;BMP180;69435;52.670;13.544;2023-05-07T15:31:33;101756.00;;;20.90
21336;BMP180;69435;52.670;13.544;2023-05-07T15:34:19;101775.00;;;21.00
21336;BMP180;69435;52.670;13.544;2023-05-07T15:37:05;101760.00;;;21.10
21336;BMP180;69435;52.670;13.544;2023-05-07T15:39:51;101761.00;;;21.20
21336;BMP180;69435;52.670;13.544;2023-05-07T15:42:36;101777.00;;;21.20
21336;BMP180;69435;52.670;13.544;2023-05-07T15:45:23;101769.00;;;21.10